sensor_id;sensor_type;location;lat;lon;timestamp;temperature;humidity
5560;DHT22;2803;47.916;8.074;2022-09-30T00:01:50;12.40;99.90
5560;DHT22;2803;47.916;8.074;2022-09-30T00:04:18;12.50;99.90
5560;DHT22;2803;47.916;8.074;2022-09-30T00:06:45;12.50;99.90
5560;DHT22;2803;47.916;8.074;2022-09-30T00:09:14;12.50;99.90
5560;DHT22;2803;47.916;8.074;2022-09-30T00:11:42;12.50;99.90
5560;DHT22;2803;47.916;8.074;2022-09-30T00:14:13;12.20;99.90
5560;DHT22;2803;47.916;8.074;2022-09-30T00:16:40;12.30;99.90
5560;DHT22;2803;47.916;8.074;2022-09-30T00:19:08;12.20;99.90
5560;DHT22;2803;47.916;8.074;2022-09-30T00:21:34;12.40;99.90
5560;DHT22;2803;47.916;8.074;2022-09-30T00:24:03;12.40;99.90
5560;DHT22;2803;47.916;8.074;2022-09-30T00:26:32;12.50;99.90
5560;DHT22;2803;47.916;8.074;2022-09-30T00:29:00;12.50;99.90
5560;DHT22;2803;47.916;8.074;2022-09-30T00:31:29;12.50;99.90
5560;DHT22;2803;47.916;8.074;2022-09-30T00:33:56;12.50;99.90
5560;DHT22;2803;47.916;8.074;2022-09-30T00:36:52;12.60;99.90
5560;DHT22;2803;47.916;8.074;2022-09-30T00:39:21;12.20;99.90
5560;DHT22;2803;47.916;8.074;2022-09-30T00:41:51;12.40;99.90
5560;DHT22;2803;47.916;8.074;2022-09-30T00:50:12;12.60;99.90
5560;DHT22;2803;47.916;8.074;2022-09-30T00:52:44;12.50;99.90
5560;DHT22;2803;47.916;8.074;2022-09-30T00:55:21;12.60;99.90
5560;DHT22;2803;47.916;8.074;2022-09-30T00:57:50;12.60;99.90
5560;DHT22;2803;47.916;8.074;2022-09-30T01:00:17;12.60;99.90
5560;DHT22;2803;47.916;8.074;2022-09-30T01:02:45;12.60;99.90
5560;DHT22;2803;47.916;8.074;2022-09-30T01:05:12;12.70;99.90
5560;DHT22;2803;47.916;8.074;2022-09-30T01:07:38;12.70;99.90
5560;DHT22;2803;47.916;8.074;2022-09-30T01:10:07;12.70;99.90
5560;DHT22;2803;47.916;8.074;2022-09-30T01:12:34;12.70;99.90
5560;DHT22;2803;47.916;8.074;2022-09-30T01:15:01;12.70;99.90
5560;DHT22;2803;47.916;8.074;2022-09-30T01:17:35;12.80;99.90
5560;DHT22;2803;47.916;8.074;2022-09-30T01:20:28;12.70;99.90
5560;DHT22;2803;47.916;8.074;2022-09-30T01:23:17;12.60;99.90
5560;DHT22;2803;47.916;8.074;2022-09-30T01:26:02;12.60;99.90
5560;DHT22;2803;47.916;8.074;2022-09-30T01:28:51;12.60;99.90
5560;DHT22;2803;47.916;8.074;2022-09-30T01:31:34;12.70;99.90
5560;DHT22;2803;47.916;8.074;2022-09-30T01:34:13;12.60;99.90
5560;DHT22;2803;47.916;8.074;2022-09-30T01:36:51;12.60;99.90
5560;DHT22;2803;47.916;8.074;2022-09-30T01:39:28;12.60;99.90
5560;DHT22;2803;47.916;8.074;2022-09-30T01:42:06;12.40;99.90
5560;DHT22;2803;47.916;8.074;2022-09-30T01:44:39;12.40;99.90
5560;DHT22;2803;47.916;8.074;2022-09-30T01:47:13;12.60;99.90
5560;DHT22;2803;47.916;8.074;2022-09-30T01:49:44;12.60;99.90
5560;DHT22;2803;47.916;8.074;2022-09-30T01:52:15;12.60;99.90
5560;DHT22;2803;47.916;8.074;2022-09-30T01:54:45;12.70;99.90
5560;DHT22;2803;47.916;8.074;2022-09-30T01:57:16;12.60;99.90
5560;DHT22;2803;47.916;8.074;2022-09-30T01:59:47;12.70;99.90
5560;DHT22;2803;47.916;8.074;2022-09-30T02:02:19;12.70;99.90
5560;DHT22;2803;47.916;8.074;2022-09-30T02:04:50;12.80;99.90
5560;DHT22;2803;47.916;8.074;2022-09-30T02:07:21;12.80;99.90
5560;DHT22;2803;47.916;8.074;2022-09-30T02:09:54;12.70;99.90
5560;DHT22;2803;47.916;8.074;2022-09-30T02:12:25;12.60;99.90
5560;DHT22;2803;47.916;8.074;2022-09-30T02:14:57;12.50;99.90
5560;DHT22;2803;47.916;8.074;2022-09-30T02:17:29;12.70;99.90
5560;DHT22;2803;47.916;8.074;2022-09-30T02:20:00;12.70;99.90
5560;DHT22;2803;47.916;8.074;2022-09-30T02:22:30;12.70;99.90
5560;DHT22;2803;47.916;8.074;2022-09-30T02:25:06;12.70;99.90
5560;DHT22;2803;47.916;8.074;2022-09-30T02:27:38;12.70;99.90
5560;DHT22;2803;47.916;8.074;2022-09-30T02:30:07;12.70;99.90
5560;DHT22;2803;47.916;8.074;2022-09-30T02:32:39;12.70;99.90
5560;DHT22;2803;47.916;8.074;2022-09-30T02:35:10;12.70;99.90
5560;DHT22;2803;47.916;8.074;2022-09-30T02:37:41;12.70;99.90
5560;DHT22;2803;47.916;8.074;2022-09-30T02:40:12;12.70;99.90
5560;DHT22;2803;47.916;8.074;2022-09-30T02:42:41;12.50;99.90
5560;DHT22;2803;47.916;8.074;2022-09-30T02:45:10;12.60;99.90
5560;DHT22;2803;47.916;8.074;2022-09-30T02:47:53;12.60;99.90
5560;DHT22;2803;47.916;8.074;2022-09-30T02:50:29;12.60;99.90
5560;DHT22;2803;47.916;8.074;2022-09-30T02:53:07;12.50;99.90
5560;DHT22;2803;47.916;8.074;2022-09-30T02:55:46;12.50;99.90
5560;DHT22;2803;47.916;8.074;2022-09-30T02:58:16;12.50;99.90
5560;DHT22;2803;47.916;8.074;2022-09-30T03:00:45;12.30;99.90
5560;DHT22;2803;47.916;8.074;2022-09-30T03:03:17;12.40;99.90
5560;DHT22;2803;47.916;8.074;2022-09-30T03:05:45;12.30;99.90
5560;DHT22;2803;47.916;8.074;2022-09-30T03:08:14;12.20;99.90
5560;DHT22;2803;47.916;8.074;2022-09-30T03:10:41;12.10;99.90
5560;DHT22;2803;47.916;8.074;2022-09-30T03:13:18;12.00;99.90
5560;DHT22;2803;47.916;8.074;2022-09-30T03:16:00;11.90;99.90
5560;DHT22;2803;47.916;8.074;2022-09-30T03:18:40;12.00;99.90
5560;DHT22;2803;47.916;8.074;2022-09-30T03:21:20;12.00;99.90
5560;DHT22;2803;47.916;8.074;2022-09-30T03:24:08;12.10;99.90
5560;DHT22;2803;47.916;8.074;2022-09-30T03:26:39;11.80;99.90
5560;DHT22;2803;47.916;8.074;2022-09-30T03:29:18;11.70;99.90
5560;DHT22;2803;47.916;8.074;2022-09-30T03:31:58;11.70;99.90
5560;DHT22;2803;47.916;8.074;2022-09-30T03:34:30;11.70;99.90
5560;DHT22;2803;47.916;8.074;2022-09-30T03:37:08;11.20;99.90
5560;DHT22;2803;47.916;8.074;2022-09-30T03:39:50;11.30;99.90
5560;DHT22;2803;47.916;8.074;2022-09-30T03:42:23;11.00;99.90
5560;DHT22;2803;47.916;8.074;2022-09-30T03:44:58;11.10;99.90
5560;DHT22;2803;47.916;8.074;2022-09-30T03:47:30;10.50;99.90
5560;DHT22;2803;47.916;8.074;2022-09-30T03:50:03;10.40;99.90
5560;DHT22;2803;47.916;8.074;2022-09-30T03:52:32;10.40;99.90
5560;DHT22;2803;47.916;8.074;2022-09-30T03:55:02;10.10;99.90
5560;DHT22;2803;47.916;8.074;2022-09-30T03:57:30;10.20;99.90
5560;DHT22;2803;47.916;8.074;2022-09-30T03:59:56;10.60;99.90
5560;DHT22;2803;47.916;8.074;2022-09-30T04:02:23;10.90;99.90
5560;DHT22;2803;47.916;8.074;2022-09-30T04:04:50;10.90;99.90
5560;DHT22;2803;47.916;8.074;2022-09-30T04:07:18;11.10;99.90
5560;DHT22;2803;47.916;8.074;2022-09-30T04:09:45;11.30;99.90
5560;DHT22;2803;47.916;8.074;2022-09-30T04:12:11;11.50;99.90
5560;DHT22;2803;47.916;8.074;2022-09-30T04:14:38;11.70;99.90
5560;DHT22;2803;47.916;8.074;2022-09-30T04:17:05;11.80;99.90
5560;DHT22;2803;47.916;8.074;2022-09-30T04:19:32;11.70;99.90
5560;DHT22;2803;47.916;8.074;2022-09-30T04:22:03;11.70;99.90
5560;DHT22;2803;47.916;8.074;2022-09-30T04:24:31;11.70;99.90
5560;DHT22;2803;47.916;8.074;2022-09-30T04:26:58;11.70;99.90
5560;DHT22;2803;47.916;8.074;2022-09-30T04:29:24;11.80;99.90
5560;DHT22;2803;47.916;8.074;2022-09-30T04:31:52;11.80;99.90
5560;DHT22;2803;47.916;8.074;2022-09-30T04:34:19;11.70;99.90
5560;DHT22;2803;47.916;8.074;2022-09-30T04:36:45;11.40;99.90
5560;DHT22;2803;47.916;8.074;2022-09-30T04:39:12;11.60;99.90
5560;DHT22;2803;47.916;8.074;2022-09-30T04:41:40;11.80;99.90
5560;DHT22;2803;47.916;8.074;2022-09-30T04:44:07;11.80;99.90
5560;DHT22;2803;47.916;8.074;2022-09-30T04:46:34;11.80;99.90
5560;DHT22;2803;47.916;8.074;2022-09-30T04:49:01;11.80;99.90
5560;DHT22;2803;47.916;8.074;2022-09-30T04:51:28;11.80;99.90
5560;DHT22;2803;47.916;8.074;2022-09-30T04:53:55;11.90;99.90
5560;DHT22;2803;47.916;8.074;2022-09-30T04:56:22;11.90;99.90
5560;DHT22;2803;47.916;8.074;2022-09-30T04:58:52;11.90;99.90
5560;DHT22;2803;47.916;8.074;2022-09-30T05:01:18;11.90;99.90
5560;DHT22;2803;47.916;8.074;2022-09-30T05:03:47;11.60;99.90
5560;DHT22;2803;47.916;8.074;2022-09-30T05:06:15;11.70;99.90
5560;DHT22;2803;47.916;8.074;2022-09-30T05:08:42;11.80;99.90
5560;DHT22;2803;47.916;8.074;2022-09-30T05:11:13;11.90;99.90
5560;DHT22;2803;47.916;8.074;2022-09-30T05:13:41;11.80;99.90
5560;DHT22;2803;47.916;8.074;2022-09-30T05:16:09;12.00;99.90
5560;DHT22;2803;47.916;8.074;2022-09-30T05:18:36;12.10;99.90
5560;DHT22;2803;47.916;8.074;2022-09-30T05:21:03;12.00;99.90
5560;DHT22;2803;47.916;8.074;2022-09-30T05:23:30;12.10;99.90
5560;DHT22;2803;47.916;8.074;2022-09-30T05:25:57;12.10;99.90
5560;DHT22;2803;47.916;8.074;2022-09-30T05:28:24;12.00;99.90
5560;DHT22;2803;47.916;8.074;2022-09-30T05:30:55;12.00;99.90
5560;DHT22;2803;47.916;8.074;2022-09-30T05:33:25;12.10;99.90
5560;DHT22;2803;47.916;8.074;2022-09-30T05:35:53;12.00;99.90
5560;DHT22;2803;47.916;8.074;2022-09-30T05:38:20;11.90;99.90
5560;DHT22;2803;47.916;8.074;2022-09-30T05:40:46;11.90;99.90
5560;DHT22;2803;47.916;8.074;2022-09-30T05:43:13;11.90;99.90
5560;DHT22;2803;47.916;8.074;2022-09-30T05:45:40;11.70;99.90
5560;DHT22;2803;47.916;8.074;2022-09-30T05:48:06;11.80;99.90
5560;DHT22;2803;47.916;8.074;2022-09-30T05:50:35;11.80;99.90
5560;DHT22;2803;47.916;8.074;2022-09-30T05:53:02;11.30;99.90
5560;DHT22;2803;47.916;8.074;2022-09-30T05:55:29;11.20;99.90
5560;DHT22;2803;47.916;8.074;2022-09-30T05:57:55;11.50;99.90
5560;DHT22;2803;47.916;8.074;2022-09-30T06:00:22;11.60;99.90
5560;DHT22;2803;47.916;8.074;2022-09-30T06:02:50;11.60;99.90
5560;DHT22;2803;47.916;8.074;2022-09-30T06:05:17;11.60;99.90
5560;DHT22;2803;47.916;8.074;2022-09-30T06:07:45;11.60;99.90
5560;DHT22;2803;47.916;8.074;2022-09-30T06:10:12;11.70;99.90
5560;DHT22;2803;47.916;8.074;2022-09-30T06:12:38;11.70;99.90
5560;DHT22;2803;47.916;8.074;2022-09-30T06:15:06;11.80;99.90
5560;DHT22;2803;47.916;8.074;2022-09-30T06:17:33;11.80;99.90
5560;DHT22;2803;47.916;8.074;2022-09-30T06:20:00;11.80;99.90
5560;DHT22;2803;47.916;8.074;2022-09-30T06:22:32;11.80;99.90
5560;DHT22;2803;47.916;8.074;2022-09-30T06:25:02;11.80;99.90
5560;DHT22;2803;47.916;8.074;2022-09-30T06:27:29;11.90;99.90
5560;DHT22;2803;47.916;8.074;2022-09-30T06:29:55;11.90;99.90
5560;DHT22;2803;47.916;8.074;2022-09-30T06:32:22;11.90;99.90
5560;DHT22;2803;47.916;8.074;2022-09-30T06:34:50;12.00;99.90
5560;DHT22;2803;47.916;8.074;2022-09-30T06:37:20;12.10;99.90
5560;DHT22;2803;47.916;8.074;2022-09-30T06:39:47;12.00;99.90
5560;DHT22;2803;47.916;8.074;2022-09-30T06:42:15;12.00;99.90
5560;DHT22;2803;47.916;8.074;2022-09-30T06:44:41;11.90;99.90
5560;DHT22;2803;47.916;8.074;2022-09-30T06:47:09;11.90;99.90
5560;DHT22;2803;47.916;8.074;2022-09-30T06:49:36;11.80;99.90
5560;DHT22;2803;47.916;8.074;2022-09-30T06:52:02;11.90;99.90
5560;DHT22;2803;47.916;8.074;2022-09-30T06:54:29;11.90;99.90
5560;DHT22;2803;47.916;8.074;2022-09-30T06:56:56;11.90;99.90
5560;DHT22;2803;47.916;8.074;2022-09-30T06:59:24;11.70;99.90
5560;DHT22;2803;47.916;8.074;2022-09-30T07:01:51;11.80;99.90
5560;DHT22;2803;47.916;8.074;2022-09-30T07:04:18;11.70;99.90
5560;DHT22;2803;47.916;8.074;2022-09-30T07:06:44;11.90;99.90
5560;DHT22;2803;47.916;8.074;2022-09-30T07:09:12;11.60;99.90
5560;DHT22;2803;47.916;8.074;2022-09-30T07:11:39;11.60;99.90
5560;DHT22;2803;47.916;8.074;2022-09-30T07:14:06;11.90;99.90
5560;DHT22;2803;47.916;8.074;2022-09-30T07:16:34;11.70;99.90
5560;DHT22;2803;47.916;8.074;2022-09-30T07:19:02;11.80;99.90
5560;DHT22;2803;47.916;8.074;2022-09-30T07:21:30;11.50;99.90
5560;DHT22;2803;47.916;8.074;2022-09-30T07:23:57;11.80;99.90
5560;DHT22;2803;47.916;8.074;2022-09-30T07:26:25;11.80;99.90
5560;DHT22;2803;47.916;8.074;2022-09-30T07:28:53;11.90;99.90
5560;DHT22;2803;47.916;8.074;2022-09-30T07:31:21;12.10;99.90
5560;DHT22;2803;47.916;8.074;2022-09-30T07:33:50;12.00;99.90
5560;DHT22;2803;47.916;8.074;2022-09-30T07:36:19;12.20;99.90
5560;DHT22;2803;47.916;8.074;2022-09-30T07:38:51;12.50;99.90
5560;DHT22;2803;47.916;8.074;2022-09-30T07:41:21;12.60;99.90
5560;DHT22;2803;47.916;8.074;2022-09-30T07:43:53;12.70;99.90
5560;DHT22;2803;47.916;8.074;2022-09-30T07:46:22;12.70;99.90
5560;DHT22;2803;47.916;8.074;2022-09-30T07:48:52;12.70;99.90
5560;DHT22;2803;47.916;8.074;2022-09-30T07:51:23;12.60;99.90
5560;DHT22;2803;47.916;8.074;2022-09-30T07:53:55;12.70;99.90
5560;DHT22;2803;47.916;8.074;2022-09-30T07:56:24;12.70;99.90
5560;DHT22;2803;47.916;8.074;2022-09-30T07:58:52;13.10;99.90
5560;DHT22;2803;47.916;8.074;2022-09-30T08:01:20;12.90;99.90
5560;DHT22;2803;47.916;8.074;2022-09-30T08:03:47;12.90;99.90
5560;DHT22;2803;47.916;8.074;2022-09-30T08:06:17;12.90;99.90
5560;DHT22;2803;47.916;8.074;2022-09-30T08:08:45;12.50;99.90
5560;DHT22;2803;47.916;8.074;2022-09-30T08:11:12;12.50;99.90
5560;DHT22;2803;47.916;8.074;2022-09-30T08:13:39;12.60;99.90
5560;DHT22;2803;47.916;8.074;2022-09-30T08:16:06;12.90;99.90
5560;DHT22;2803;47.916;8.074;2022-09-30T08:18:33;13.00;99.90
5560;DHT22;2803;47.916;8.074;2022-09-30T08:21:02;12.70;99.90
5560;DHT22;2803;47.916;8.074;2022-09-30T08:23:31;12.60;99.90
5560;DHT22;2803;47.916;8.074;2022-09-30T08:26:02;12.40;99.90
5560;DHT22;2803;47.916;8.074;2022-09-30T08:28:29;12.30;99.90
5560;DHT22;2803;47.916;8.074;2022-09-30T08:31:03;12.60;99.90
5560;DHT22;2803;47.916;8.074;2022-09-30T08:33:29;12.80;99.90
5560;DHT22;2803;47.916;8.074;2022-09-30T08:35:59;13.10;99.90
5560;DHT22;2803;47.916;8.074;2022-09-30T08:38:26;13.50;99.90
5560;DHT22;2803;47.916;8.074;2022-09-30T08:41:03;13.70;99.90
5560;DHT22;2803;47.916;8.074;2022-09-30T08:43:39;13.90;99.90
5560;DHT22;2803;47.916;8.074;2022-09-30T08:46:11;13.80;99.90
5560;DHT22;2803;47.916;8.074;2022-09-30T08:48:47;14.20;99.90
5560;DHT22;2803;47.916;8.074;2022-09-30T08:51:27;14.30;99.90
5560;DHT22;2803;47.916;8.074;2022-09-30T08:53:57;14.50;99.90
5560;DHT22;2803;47.916;8.074;2022-09-30T08:56:30;14.50;99.90
5560;DHT22;2803;47.916;8.074;2022-09-30T08:59:02;14.20;99.90
5560;DHT22;2803;47.916;8.074;2022-09-30T09:01:32;14.30;99.90
5560;DHT22;2803;47.916;8.074;2022-09-30T09:04:01;14.50;99.90
5560;DHT22;2803;47.916;8.074;2022-09-30T09:06:34;14.80;99.90
5560;DHT22;2803;47.916;8.074;2022-09-30T09:09:13;14.70;99.90
5560;DHT22;2803;47.916;8.074;2022-09-30T09:11:57;15.10;99.90
5560;DHT22;2803;47.916;8.074;2022-09-30T09:14:36;15.40;99.90
5560;DHT22;2803;47.916;8.074;2022-09-30T09:17:13;15.30;99.90
5560;DHT22;2803;47.916;8.074;2022-09-30T09:19:46;15.80;99.90
5560;DHT22;2803;47.916;8.074;2022-09-30T09:22:17;15.10;99.90
5560;DHT22;2803;47.916;8.074;2022-09-30T09:24:46;15.20;99.90
5560;DHT22;2803;47.916;8.074;2022-09-30T09:27:20;15.60;99.90
5560;DHT22;2803;47.916;8.074;2022-09-30T09:29:56;16.20;99.90
5560;DHT22;2803;47.916;8.074;2022-09-30T09:32:26;16.20;99.90
5560;DHT22;2803;47.916;8.074;2022-09-30T09:34:57;16.30;99.90
5560;DHT22;2803;47.916;8.074;2022-09-30T09:37:29;16.60;99.90
5560;DHT22;2803;47.916;8.074;2022-09-30T09:40:20;16.60;99.90
5560;DHT22;2803;47.916;8.074;2022-09-30T09:42:59;16.80;99.90
5560;DHT22;2803;47.916;8.074;2022-09-30T09:45:35;17.20;99.90
5560;DHT22;2803;47.916;8.074;2022-09-30T09:48:07;17.10;99.90
5560;DHT22;2803;47.916;8.074;2022-09-30T09:50:41;17.20;99.90
5560;DHT22;2803;47.916;8.074;2022-09-30T09:53:27;17.50;99.90
5560;DHT22;2803;47.916;8.074;2022-09-30T09:55:58;17.80;99.90
5560;DHT22;2803;47.916;8.074;2022-09-30T09:58:28;17.60;99.90
5560;DHT22;2803;47.916;8.074;2022-09-30T10:01:08;18.30;99.90
5560;DHT22;2803;47.916;8.074;2022-09-30T10:04:06;18.20;99.90
5560;DHT22;2803;47.916;8.074;2022-09-30T10:06:45;17.40;99.90
5560;DHT22;2803;47.916;8.074;2022-09-30T10:09:30;17.00;99.90
5560;DHT22;2803;47.916;8.074;2022-09-30T10:14:59;17.10;99.90
5560;DHT22;2803;47.916;8.074;2022-09-30T10:17:28;17.20;99.90
5560;DHT22;2803;47.916;8.074;2022-09-30T10:19:58;16.60;99.90
5560;DHT22;2803;47.916;8.074;2022-09-30T10:22:28;17.00;99.90
5560;DHT22;2803;47.916;8.074;2022-09-30T10:25:16;17.00;99.90
5560;DHT22;2803;47.916;8.074;2022-09-30T10:27:49;17.20;99.90
5560;DHT22;2803;47.916;8.074;2022-09-30T10:30:38;17.30;99.90
5560;DHT22;2803;47.916;8.074;2022-09-30T10:33:17;17.60;99.90
5560;DHT22;2803;47.916;8.074;2022-09-30T10:36:01;18.00;99.90
5560;DHT22;2803;47.916;8.074;2022-09-30T10:38:29;18.70;99.90
5560;DHT22;2803;47.916;8.074;2022-09-30T10:41:00;18.80;99.90
5560;DHT22;2803;47.916;8.074;2022-09-30T10:43:31;18.20;99.90
5560;DHT22;2803;47.916;8.074;2022-09-30T10:46:02;18.10;99.90
5560;DHT22;2803;47.916;8.074;2022-09-30T10:48:33;17.60;99.90
5560;DHT22;2803;47.916;8.074;2022-09-30T10:51:00;17.50;99.90
5560;DHT22;2803;47.916;8.074;2022-09-30T10:53:29;17.30;99.90
5560;DHT22;2803;47.916;8.074;2022-09-30T10:55:57;17.40;99.90
5560;DHT22;2803;47.916;8.074;2022-09-30T10:58:33;17.20;99.90
5560;DHT22;2803;47.916;8.074;2022-09-30T11:01:13;16.70;99.90
5560;DHT22;2803;47.916;8.074;2022-09-30T11:03:51;16.00;99.90
5560;DHT22;2803;47.916;8.074;2022-09-30T11:06:21;15.90;99.90
5560;DHT22;2803;47.916;8.074;2022-09-30T11:08:54;15.30;99.90
5560;DHT22;2803;47.916;8.074;2022-09-30T11:11:24;15.10;99.90
5560;DHT22;2803;47.916;8.074;2022-09-30T11:13:55;14.80;99.90
5560;DHT22;2803;47.916;8.074;2022-09-30T11:16:28;14.70;99.90
5560;DHT22;2803;47.916;8.074;2022-09-30T11:19:02;14.80;99.90
5560;DHT22;2803;47.916;8.074;2022-09-30T11:21:34;14.80;99.90
5560;DHT22;2803;47.916;8.074;2022-09-30T11:24:19;14.90;99.90
5560;DHT22;2803;47.916;8.074;2022-09-30T11:26:56;14.50;99.90
5560;DHT22;2803;47.916;8.074;2022-09-30T11:29:38;15.00;99.90
5560;DHT22;2803;47.916;8.074;2022-09-30T11:32:21;14.80;99.90
5560;DHT22;2803;47.916;8.074;2022-09-30T11:34:55;14.70;99.90
5560;DHT22;2803;47.916;8.074;2022-09-30T11:37:34;14.80;99.90
5560;DHT22;2803;47.916;8.074;2022-09-30T11:40:23;14.80;99.90
5560;DHT22;2803;47.916;8.074;2022-09-30T11:42:55;14.80;99.90
5560;DHT22;2803;47.916;8.074;2022-09-30T11:45:32;14.70;99.90
5560;DHT22;2803;47.916;8.074;2022-09-30T11:48:18;15.10;99.90
5560;DHT22;2803;47.916;8.074;2022-09-30T11:50:54;15.10;99.90
5560;DHT22;2803;47.916;8.074;2022-09-30T11:53:31;15.10;99.90
5560;DHT22;2803;47.916;8.074;2022-09-30T11:56:08;15.20;99.90
5560;DHT22;2803;47.916;8.074;2022-09-30T11:58:40;15.50;99.90
5560;DHT22;2803;47.916;8.074;2022-09-30T12:01:15;15.50;99.90
5560;DHT22;2803;47.916;8.074;2022-09-30T12:03:53;15.50;99.90
5560;DHT22;2803;47.916;8.074;2022-09-30T12:06:27;15.10;99.90
5560;DHT22;2803;47.916;8.074;2022-09-30T12:08:57;14.80;99.90
5560;DHT22;2803;47.916;8.074;2022-09-30T12:11:32;14.90;99.90
5560;DHT22;2803;47.916;8.074;2022-09-30T12:14:05;15.00;99.90
5560;DHT22;2803;47.916;8.074;2022-09-30T12:16:36;15.00;99.90
5560;DHT22;2803;47.916;8.074;2022-09-30T12:19:14;15.20;99.90
5560;DHT22;2803;47.916;8.074;2022-09-30T12:21:48;15.10;99.90
5560;DHT22;2803;47.916;8.074;2022-09-30T12:24:21;15.20;99.90
5560;DHT22;2803;47.916;8.074;2022-09-30T12:26:50;14.80;99.90
5560;DHT22;2803;47.916;8.074;2022-09-30T12:29:20;14.60;99.90
5560;DHT22;2803;47.916;8.074;2022-09-30T12:32:13;14.70;99.90
5560;DHT22;2803;47.916;8.074;2022-09-30T12:34:55;14.80;99.90
5560;DHT22;2803;47.916;8.074;2022-09-30T12:37:36;15.10;99.90
5560;DHT22;2803;47.916;8.074;2022-09-30T12:40:16;15.10;99.90
5560;DHT22;2803;47.916;8.074;2022-09-30T12:43:04;14.80;99.90
5560;DHT22;2803;47.916;8.074;2022-09-30T12:48:22;14.60;99.90
5560;DHT22;2803;47.916;8.074;2022-09-30T12:50:55;14.80;99.90
5560;DHT22;2803;47.916;8.074;2022-09-30T12:53:25;14.90;99.90
5560;DHT22;2803;47.916;8.074;2022-09-30T12:55:54;14.90;99.90
5560;DHT22;2803;47.916;8.074;2022-09-30T12:58:32;14.60;99.90
5560;DHT22;2803;47.916;8.074;2022-09-30T13:01:02;15.10;99.90
5560;DHT22;2803;47.916;8.074;2022-09-30T13:03:44;15.10;99.90
5560;DHT22;2803;47.916;8.074;2022-09-30T13:06:14;14.70;99.90
5560;DHT22;2803;47.916;8.074;2022-09-30T13:08:46;14.50;99.90
5560;DHT22;2803;47.916;8.074;2022-09-30T13:11:31;14.50;99.90
5560;DHT22;2803;47.916;8.074;2022-09-30T13:14:10;14.20;99.90
5560;DHT22;2803;47.916;8.074;2022-09-30T13:19:37;14.80;99.90
5560;DHT22;2803;47.916;8.074;2022-09-30T13:25:10;15.10;99.90
5560;DHT22;2803;47.916;8.074;2022-09-30T13:27:40;15.10;99.90
5560;DHT22;2803;47.916;8.074;2022-09-30T13:33:29;14.60;99.90
5560;DHT22;2803;47.916;8.074;2022-09-30T13:36:06;15.10;99.90
5560;DHT22;2803;47.916;8.074;2022-09-30T13:38:37;15.10;99.90
5560;DHT22;2803;47.916;8.074;2022-09-30T13:41:13;15.20;99.90
5560;DHT22;2803;47.916;8.074;2022-09-30T13:43:43;15.00;99.90
5560;DHT22;2803;47.916;8.074;2022-09-30T13:46:21;15.10;99.90
5560;DHT22;2803;47.916;8.074;2022-09-30T13:48:50;15.20;99.90
5560;DHT22;2803;47.916;8.074;2022-09-30T13:51:20;15.10;99.90
5560;DHT22;2803;47.916;8.074;2022-09-30T13:53:50;15.00;99.90
5560;DHT22;2803;47.916;8.074;2022-09-30T13:56:22;15.10;99.90
5560;DHT22;2803;47.916;8.074;2022-09-30T13:59:05;15.00;99.90
5560;DHT22;2803;47.916;8.074;2022-09-30T14:01:51;14.70;99.90
5560;DHT22;2803;47.916;8.074;2022-09-30T14:04:36;14.60;99.90
5560;DHT22;2803;47.916;8.074;2022-09-30T14:07:10;14.60;99.90
5560;DHT22;2803;47.916;8.074;2022-09-30T14:09:49;14.50;99.90
5560;DHT22;2803;47.916;8.074;2022-09-30T14:12:32;14.20;99.90
5560;DHT22;2803;47.916;8.074;2022-09-30T14:18:19;14.20;99.90
5560;DHT22;2803;47.916;8.074;2022-09-30T14:21:00;14.10;99.90
5560;DHT22;2803;47.916;8.074;2022-09-30T14:23:30;14.20;99.90
5560;DHT22;2803;47.916;8.074;2022-09-30T14:26:03;14.40;99.90
5560;DHT22;2803;47.916;8.074;2022-09-30T14:28:37;14.60;99.90
5560;DHT22;2803;47.916;8.074;2022-09-30T14:31:12;14.40;99.90
5560;DHT22;2803;47.916;8.074;2022-09-30T14:33:40;14.60;99.90
5560;DHT22;2803;47.916;8.074;2022-09-30T14:36:12;14.60;99.90
5560;DHT22;2803;47.916;8.074;2022-09-30T14:38:43;14.50;99.90
5560;DHT22;2803;47.916;8.074;2022-09-30T14:41:17;14.60;99.90
5560;DHT22;2803;47.916;8.074;2022-09-30T14:43:49;15.00;99.90
5560;DHT22;2803;47.916;8.074;2022-09-30T14:46:26;15.20;99.90
5560;DHT22;2803;47.916;8.074;2022-09-30T14:48:55;15.00;99.90
5560;DHT22;2803;47.916;8.074;2022-09-30T14:51:24;14.70;99.90
5560;DHT22;2803;47.916;8.074;2022-09-30T14:53:53;14.60;99.90
5560;DHT22;2803;47.916;8.074;2022-09-30T14:56:21;14.40;99.90
5560;DHT22;2803;47.916;8.074;2022-09-30T14:58:52;14.40;99.90
5560;DHT22;2803;47.916;8.074;2022-09-30T15:01:22;14.20;99.90
5560;DHT22;2803;47.916;8.074;2022-09-30T15:03:52;14.30;99.90
5560;DHT22;2803;47.916;8.074;2022-09-30T15:06:22;13.90;99.90
5560;DHT22;2803;47.916;8.074;2022-09-30T15:08:58;14.10;99.90
5560;DHT22;2803;47.916;8.074;2022-09-30T15:11:26;14.20;99.90
5560;DHT22;2803;47.916;8.074;2022-09-30T15:13:57;14.30;99.90
5560;DHT22;2803;47.916;8.074;2022-09-30T15:16:25;14.20;99.90
5560;DHT22;2803;47.916;8.074;2022-09-30T15:18:52;14.40;99.90
5560;DHT22;2803;47.916;8.074;2022-09-30T15:21:20;14.50;99.90
5560;DHT22;2803;47.916;8.074;2022-09-30T15:23:49;14.60;99.90
5560;DHT22;2803;47.916;8.074;2022-09-30T15:26:17;14.40;99.90
5560;DHT22;2803;47.916;8.074;2022-09-30T15:28:44;14.50;99.90
5560;DHT22;2803;47.916;8.074;2022-09-30T15:31:20;14.50;99.90
5560;DHT22;2803;47.916;8.074;2022-09-30T15:33:48;14.80;99.90
5560;DHT22;2803;47.916;8.074;2022-09-30T15:36:16;15.00;99.90
5560;DHT22;2803;47.916;8.074;2022-09-30T15:38:46;15.10;99.90
5560;DHT22;2803;47.916;8.074;2022-09-30T15:41:14;15.10;99.90
5560;DHT22;2803;47.916;8.074;2022-09-30T15:43:43;15.20;99.90
5560;DHT22;2803;47.916;8.074;2022-09-30T15:46:25;15.20;99.90
5560;DHT22;2803;47.916;8.074;2022-09-30T15:48:55;15.20;99.90
5560;DHT22;2803;47.916;8.074;2022-09-30T15:51:28;15.20;99.90
5560;DHT22;2803;47.916;8.074;2022-09-30T15:53:56;15.10;99.90
5560;DHT22;2803;47.916;8.074;2022-09-30T15:56:30;15.00;99.90
5560;DHT22;2803;47.916;8.074;2022-09-30T15:58:59;14.80;99.90
5560;DHT22;2803;47.916;8.074;2022-09-30T16:01:33;14.80;99.90
5560;DHT22;2803;47.916;8.074;2022-09-30T16:04:03;14.90;99.90
5560;DHT22;2803;47.916;8.074;2022-09-30T16:06:36;15.00;99.90
5560;DHT22;2803;47.916;8.074;2022-09-30T16:09:18;15.10;99.90
5560;DHT22;2803;47.916;8.074;2022-09-30T16:11:55;15.20;99.90
5560;DHT22;2803;47.916;8.074;2022-09-30T16:14:25;15.20;99.90
5560;DHT22;2803;47.916;8.074;2022-09-30T16:16:56;15.40;99.90
5560;DHT22;2803;47.916;8.074;2022-09-30T16:19:23;15.50;99.90
5560;DHT22;2803;47.916;8.074;2022-09-30T16:21:51;15.40;99.90
5560;DHT22;2803;47.916;8.074;2022-09-30T16:27:21;15.30;99.90
5560;DHT22;2803;47.916;8.074;2022-09-30T16:29:50;15.30;99.90
5560;DHT22;2803;47.916;8.074;2022-09-30T16:32:18;15.20;99.90
5560;DHT22;2803;47.916;8.074;2022-09-30T16:34:45;15.20;99.90
5560;DHT22;2803;47.916;8.074;2022-09-30T16:37:13;15.10;99.90
5560;DHT22;2803;47.916;8.074;2022-09-30T16:39:42;14.90;99.90
5560;DHT22;2803;47.916;8.074;2022-09-30T16:42:11;14.90;99.90
5560;DHT22;2803;47.916;8.074;2022-09-30T16:44:40;14.90;99.90
5560;DHT22;2803;47.916;8.074;2022-09-30T16:47:12;14.90;99.90
5560;DHT22;2803;47.916;8.074;2022-09-30T16:49:41;14.80;99.90
5560;DHT22;2803;47.916;8.074;2022-09-30T16:52:08;14.50;99.90
5560;DHT22;2803;47.916;8.074;2022-09-30T16:54:35;14.40;99.90
5560;DHT22;2803;47.916;8.074;2022-09-30T16:57:02;14.40;99.90
5560;DHT22;2803;47.916;8.074;2022-09-30T16:59:28;14.50;99.90